Time;durP1;ratioP1;P1;durP2;ratioP2;P2;SDS_P1;SDS_P2;PMS_P1;PMS_P2;Temp;Humidity;BMP_temperature;BMP_pressure;BME280_temperature;BME280_humidity;BME280_pressure;Samples;Min_cycle;Max_cycle;Signal;HPM_P1;HPM_P2
2023/12/06 00:02:08;;;;;;;17.63;9.25;;;4.70;99.90;;;;;;5036712;28;20113;-68
2023/12/06 00:04:34;;;;;;;18.63;9.40;;;4.70;99.90;;;;;;5039787;28;20081;-68
2023/12/06 00:07:02;;;;;;;15.20;9.00;;;4.70;99.90;;;;;;5037300;28;20542;-68
2023/12/06 00:09:29;;;;;;;18.90;9.70;;;4.80;99.90;;;;;;5037107;28;20329;-68
2023/12/06 00:11:57;;;;;;;19.05;9.57;;;4.70;99.90;;;;;;5036892;28;20043;-68
2023/12/06 00:14:25;;;;;;;;;;;4.70;99.90;;;;;;5045131;28;20045;-68
2023/12/06 00:16:50;;;;;;;17.92;9.73;;;4.70;99.90;;;;;;5035530;28;20220;-68
2023/12/06 00:19:18;;;;;;;18.08;9.90;;;4.70;99.90;;;;;;5037735;28;20040;-68
2023/12/06 00:21:44;;;;;;;;;;;4.70;99.90;;;;;;5036859;28;20040;-68
2023/12/06 00:24:09;;;;;;;19.20;8.55;;;4.70;99.90;;;;;;5037229;28;19916;-68
2023/12/06 00:26:39;;;;;;;19.45;10.38;;;4.70;99.90;;;;;;5034557;28;20472;-68
2023/12/06 00:29:05;;;;;;;15.88;9.48;;;4.70;99.90;;;;;;5036967;28;20037;-69
2023/12/06 00:31:31;;;;;;;21.45;10.80;;;4.70;99.90;;;;;;5036072;28;20051;-68
2023/12/06 00:33:56;;;;;;;16.33;9.25;;;4.70;99.90;;;;;;5037790;28;20108;-68
2023/12/06 00:36:22;;;;;;;20.70;10.18;;;4.70;99.90;;;;;;5036056;28;20036;-68
2023/12/06 00:38:48;;;;;;;20.77;10.20;;;4.80;99.90;;;;;;5037424;28;21753;-69
2023/12/06 00:41:15;;;;;;;18.80;10.07;;;4.70;99.90;;;;;;5038458;28;20460;-68
2023/12/06 00:43:41;;;;;;;16.65;9.85;;;4.70;99.90;;;;;;5036638;28;20056;-69
2023/12/06 00:46:06;;;;;;;17.92;9.70;;;4.70;99.90;;;;;;5036689;28;20140;-68
2023/12/06 00:48:32;;;;;;;20.33;10.32;;;4.70;99.90;;;;;;5056436;22;20055;-69
2023/12/06 00:51:01;;;;;;;16.35;9.60;;;4.70;99.90;;;;;;5056911;28;20036;-69
2023/12/06 00:53:33;;;;;;;16.92;9.50;;;4.70;99.90;;;;;;5055769;28;20089;-68
2023/12/06 00:55:59;;;;;;;17.60;9.65;;;4.70;99.90;;;;;;5060279;28;20035;-69
2023/12/06 00:58:25;;;;;;;18.13;9.65;;;4.80;99.90;;;;;;5057254;28;20781;-68
2023/12/06 01:00:53;;;;;;;21.27;10.20;;;4.80;99.90;;;;;;5058579;28;20047;-68
2023/12/06 01:03:20;;;;;;;;;;;4.80;99.90;;;;;;5059247;28;20043;-68
2023/12/06 01:05:46;;;;;;;15.98;9.13;;;4.80;99.90;;;;;;5060398;28;20519;-68
2023/12/06 01:08:12;;;;;;;17.52;9.27;;;4.80;99.90;;;;;;5058331;28;20647;-68
2023/12/06 01:10:37;;;;;;;18.70;10.00;;;4.80;99.90;;;;;;5059499;28;20035;-68
2023/12/06 01:13:03;;;;;;;18.55;9.98;;;4.80;99.90;;;;;;5061093;28;20042;-69
2023/12/06 01:15:29;;;;;;;17.20;9.60;;;4.90;99.90;;;;;;5057949;28;20123;-69
2023/12/06 01:17:57;;;;;;;18.98;8.70;;;4.80;99.90;;;;;;5056076;28;20044;-67
2023/12/06 01:20:22;;;;;;;;;;;4.80;99.90;;;;;;5062537;28;20661;-66
2023/12/06 01:22:48;;;;;;;17.13;8.63;;;4.80;99.90;;;;;;5062721;28;19916;-66
2023/12/06 01:25:13;;;;;;;16.10;9.00;;;4.70;99.90;;;;;;5062766;28;20060;-66
2023/12/06 01:27:39;;;;;;;16.10;9.23;;;4.80;99.90;;;;;;5062105;28;20241;-65
2023/12/06 01:30:05;;;;;;;16.30;9.07;;;4.70;99.90;;;;;;5060960;28;20036;-66
2023/12/06 01:32:31;;;;;;;16.23;8.95;;;4.80;99.90;;;;;;5061193;28;20081;-65
2023/12/06 01:34:59;;;;;;;17.60;9.13;;;4.80;99.90;;;;;;5063167;28;20711;-65
2023/12/06 01:37:24;;;;;;;;;;;4.80;99.90;;;;;;5062141;28;20050;-65
2023/12/06 01:39:52;;;;;;;18.13;10.48;;;4.80;99.90;;;;;;5064717;28;19920;-66
2023/12/06 01:42:20;;;;;;;18.42;9.85;;;4.80;99.90;;;;;;5061882;28;20035;-65
2023/12/06 01:44:45;;;;;;;;;;;4.80;99.90;;;;;;5058794;28;20032;-65
2023/12/06 01:47:16;;;;;;;15.57;8.30;;;4.90;99.90;;;;;;5061121;28;20677;-66
2023/12/06 01:49:41;;;;;;;14.30;8.25;;;4.90;99.90;;;;;;5062696;28;20152;-66
2023/12/06 01:52:09;;;;;;;14.13;8.25;;;4.90;99.90;;;;;;5061804;28;20032;-65
2023/12/06 01:54:35;;;;;;;14.70;8.57;;;4.70;99.90;;;;;;5062520;28;20160;-66
2023/12/06 01:57:01;;;;;;;13.32;7.10;;;4.60;99.90;;;;;;5061110;28;20032;-66
2023/12/06 01:59:27;;;;;;;15.90;7.93;;;4.60;99.90;;;;;;5060414;28;20085;-65
2023/12/06 02:01:55;;;;;;;10.70;6.10;;;4.50;99.90;;;;;;5060676;28;20500;-65
2023/12/06 02:04:24;;;;;;;10.45;6.18;;;4.50;99.90;;;;;;5060421;28;20545;-66
2023/12/06 02:06:49;;;;;;;9.77;5.90;;;4.50;99.90;;;;;;5060413;28;20520;-65
2023/12/06 02:09:17;;;;;;;10.77;6.40;;;4.40;99.90;;;;;;5062703;28;20169;-66
2023/12/06 02:11:43;;;;;;;10.90;7.20;;;4.50;99.90;;;;;;5058214;28;20059;-66
2023/12/06 02:14:11;;;;;;;9.43;5.32;;;4.60;99.90;;;;;;5056274;28;20047;-66
2023/12/06 02:16:37;;;;;;;8.77;5.18;;;4.50;99.90;;;;;;5060923;28;20043;-66
2023/12/06 02:19:03;;;;;;;7.80;5.15;;;4.50;99.90;;;;;;5062164;28;20359;-66
2023/12/06 02:21:29;;;;;;;9.35;5.57;;;4.50;99.90;;;;;;5059421;28;20540;-66
2023/12/06 02:23:58;;;;;;;8.60;5.30;;;4.40;99.90;;;;;;5060860;28;20051;-66
2023/12/06 02:26:23;;;;;;;8.30;4.72;;;4.50;99.90;;;;;;5062018;28;20028;-65
2023/12/06 02:28:55;;;;;;;7.20;4.75;;;4.60;99.90;;;;;;5060804;28;20054;-66
2023/12/06 02:31:20;;;;;;;9.60;5.70;;;4.50;99.90;;;;;;5061077;28;20051;-65
2023/12/06 02:33:50;;;;;;;9.85;5.35;;;4.30;99.90;;;;;;5060116;28;20059;-65
2023/12/06 02:36:18;;;;;;;8.20;4.68;;;4.40;99.90;;;;;;5062386;28;20035;-65
2023/12/06 02:38:46;;;;;;;10.18;5.25;;;4.30;99.90;;;;;;5059883;28;20123;-66
2023/12/06 02:41:16;;;;;;;8.48;4.78;;;4.30;99.90;;;;;;5055658;28;20040;-66
2023/12/06 02:43:45;;;;;;;7.97;4.95;;;4.40;99.90;;;;;;5061922;28;20031;-66
2023/12/06 02:46:11;;;;;;;8.10;5.13;;;4.40;99.90;;;;;;5058341;28;20028;-66
2023/12/06 02:48:39;;;;;;;8.43;4.95;;;4.50;99.90;;;;;;5060094;28;20043;-66
2023/12/06 02:51:07;;;;;;;11.88;4.78;;;4.60;99.90;;;;;;5059396;28;20040;-66
2023/12/06 02:53:33;;;;;;;7.82;5.43;;;4.40;99.90;;;;;;5059144;28;20059;-65
2023/12/06 02:55:58;;;;;;;9.00;5.13;;;4.20;99.90;;;;;;5059635;28;20055;-66
2023/12/06 02:58:28;;;;;;;8.23;4.90;;;4.10;99.90;;;;;;5060194;28;20338;-65
2023/12/06 03:00:55;;;;;;;9.43;5.65;;;4.20;99.90;;;;;;5063188;28;20479;-66
2023/12/06 03:03:20;;;;;;;7.93;5.32;;;4.20;99.90;;;;;;5059896;28;20043;-66
2023/12/06 03:05:48;;;;;;;8.40;5.43;;;4.20;99.90;;;;;;5060972;28;20032;-66
2023/12/06 03:08:14;;;;;;;10.52;5.68;;;4.30;99.90;;;;;;5058333;28;20044;-66
2023/12/06 03:10:42;;;;;;;17.38;6.63;;;4.20;99.90;;;;;;5060308;28;20070;-66
2023/12/06 03:13:07;;;;;;;;;;;4.10;99.90;;;;;;5060606;28;20039;-66
2023/12/06 03:15:33;;;;;;;11.55;5.78;;;4.00;99.90;;;;;;5059878;28;20046;-66
2023/12/06 03:17:58;;;;;;;14.05;5.88;;;4.00;99.90;;;;;;5060432;28;20046;-66
2023/12/06 03:20:24;;;;;;;11.45;5.93;;;4.10;99.90;;;;;;5059125;28;20094;-66
2023/12/06 03:22:49;;;;;;;11.65;6.40;;;4.20;99.90;;;;;;5060258;28;20032;-66
2023/12/06 03:25:15;;;;;;;10.75;6.13;;;4.10;99.90;;;;;;5059900;28;20578;-66
2023/12/06 03:27:42;;;;;;;17.02;6.60;;;4.00;99.90;;;;;;5058352;28;20035;-66
2023/12/06 03:30:08;;;;;;;13.77;6.63;;;3.90;99.90;;;;;;5058759;28;20028;-66
2023/12/06 03:32:34;;;;;;;10.60;5.82;;;4.00;99.90;;;;;;5058564;28;20036;-66
2023/12/06 03:35:02;;;;;;;11.95;6.60;;;4.10;99.90;;;;;;5058794;28;20077;-66
2023/12/06 03:37:27;;;;;;;12.07;6.50;;;4.10;99.90;;;;;;5059548;28;20038;-66
2023/12/06 03:39:53;;;;;;;11.13;5.90;;;4.20;99.90;;;;;;5060272;28;20036;-66
2023/12/06 03:42:21;;;;;;;11.07;6.07;;;4.10;99.90;;;;;;5059749;28;20028;-66
2023/12/06 03:44:48;;;;;;;14.88;7.18;;;4.00;99.90;;;;;;5060090;28;20024;-66
2023/12/06 03:47:16;;;;;;;14.68;7.28;;;3.90;99.90;;;;;;5058260;28;20274;-66
2023/12/06 03:49:42;;;;;;;14.75;7.60;;;3.90;99.90;;;;;;5059460;28;20063;-66
2023/12/06 03:52:09;;;;;;;13.45;6.88;;;3.80;99.90;;;;;;5058920;28;20097;-66
2023/12/06 03:54:37;;;;;;;13.30;7.15;;;3.90;99.90;;;;;;5062231;28;20032;-66
2023/12/06 03:57:05;;;;;;;15.73;7.93;;;3.80;99.90;;;;;;5059990;28;20051;-66
2023/12/06 03:59:30;;;;;;;;;;;3.80;99.90;;;;;;5059954;28;20556;-66
2023/12/06 04:02:00;;;;;;;17.48;7.97;;;3.70;99.90;;;;;;5061324;28;19920;-66
2023/12/06 04:04:26;;;;;;;15.40;7.95;;;3.70;99.90;;;;;;5060251;28;20186;-66
2023/12/06 04:06:52;;;;;;;13.20;7.90;;;3.80;99.90;;;;;;5058742;28;20072;-66
2023/12/06 04:09:20;;;;;;;20.48;9.07;;;3.80;99.90;;;;;;5061685;28;20506;-66
2023/12/06 04:11:45;;;;;;;;;;;3.90;99.90;;;;;;5060819;28;20097;-66
2023/12/06 04:14:13;;;;;;;16.60;8.73;;;3.90;99.90;;;;;;5058839;28;19912;-66
2023/12/06 04:16:43;;;;;;;18.75;9.18;;;4.00;99.90;;;;;;5057314;28;20045;-66
2023/12/06 04:19:09;;;;;;;18.23;8.70;;;3.90;99.90;;;;;;5061046;28;20036;-66
2023/12/06 04:21:34;;;;;;;20.77;10.00;;;3.80;99.90;;;;;;5059661;28;20063;-66
2023/12/06 04:24:00;;;;;;;19.13;9.23;;;3.90;99.90;;;;;;5060069;28;20020;-66
2023/12/06 04:26:25;;;;;;;18.17;8.90;;;3.80;99.90;;;;;;5058433;28;20035;-66
2023/12/06 04:28:53;;;;;;;20.52;10.45;;;3.80;99.90;;;;;;5060722;28;20378;-66
2023/12/06 04:31:19;;;;;;;;;;;3.80;99.90;;;;;;5064206;28;20039;-66
2023/12/06 04:33:44;;;;;;;24.52;9.32;;;3.90;99.90;;;;;;5061853;28;19923;-66
2023/12/06 04:36:12;;;;;;;18.35;8.63;;;3.80;99.90;;;;;;5065635;28;20723;-66
2023/12/06 04:38:37;;;;;;;21.85;10.05;;;3.70;99.90;;;;;;5063237;28;20036;-66
2023/12/06 04:41:03;;;;;;;16.48;8.75;;;3.70;99.90;;;;;;5064818;28;20054;-66
2023/12/06 04:43:29;;;;;;;19.55;9.98;;;3.70;99.90;;;;;;5062091;28;20052;-66
2023/12/06 04:45:54;;;;;;;16.25;8.73;;;3.70;99.90;;;;;;5063516;28;20069;-66
2023/12/06 04:48:21;;;;;;;23.75;10.73;;;3.70;99.90;;;;;;5063683;28;20051;-66
2023/12/06 04:50:49;;;;;;;18.52;10.18;;;3.80;99.90;;;;;;5062412;28;20058;-66
2023/12/06 04:53:14;;;;;;;18.25;9.60;;;3.70;99.90;;;;;;5062075;28;20065;-66
2023/12/06 04:55:40;;;;;;;19.52;9.57;;;3.70;99.90;;;;;;5062698;28;22702;-66
2023/12/06 04:58:06;;;;;;;18.77;9.43;;;3.80;99.90;;;;;;5061287;28;21626;-66
2023/12/06 05:00:31;;;;;;;22.67;10.75;;;3.70;99.90;;;;;;5063320;28;20036;-66
2023/12/06 05:02:57;;;;;;;22.20;10.63;;;3.60;99.90;;;;;;5062331;28;20589;-66
2023/12/06 05:05:22;;;;;;;19.48;10.73;;;3.60;99.90;;;;;;5063672;28;20591;-66
2023/12/06 05:07:48;;;;;;;20.13;10.77;;;3.60;99.90;;;;;;5060985;28;20737;-66
2023/12/06 05:10:13;;;;;;;23.88;11.52;;;3.70;99.90;;;;;;5062266;28;20119;-66
2023/12/06 05:12:44;;;;;;;23.02;10.75;;;3.80;99.90;;;;;;5063448;28;20036;-66
2023/12/06 05:15:10;;;;;;;22.88;11.75;;;3.70;99.90;;;;;;5063266;28;20492;-66
2023/12/06 05:17:36;;;;;;;23.30;10.85;;;3.70;99.90;;;;;;5061784;28;20123;-66
2023/12/06 05:20:04;;;;;;;20.80;10.25;;;3.70;99.90;;;;;;5062722;28;20500;-66
2023/12/06 05:22:30;;;;;;;;;;;3.70;99.90;;;;;;5059597;28;20032;-66
2023/12/06 05:24:55;;;;;;;22.20;11.02;;;3.60;99.90;;;;;;5074664;28;20313;-66
2023/12/06 05:27:23;;;;;;;26.65;11.98;;;3.60;99.90;;;;;;5061496;28;20028;-66
2023/12/06 05:29:48;;;;;;;22.80;11.52;;;3.60;99.90;;;;;;5077333;27;20151;-66
2023/12/06 05:32:17;;;;;;;24.15;11.48;;;3.70;99.90;;;;;;5061839;28;20040;-66
2023/12/06 05:34:44;;;;;;;26.25;11.93;;;3.70;99.90;;;;;;5063649;28;20036;-66
2023/12/06 05:37:12;;;;;;;24.70;11.93;;;3.70;99.90;;;;;;5059838;28;20040;-66
2023/12/06 05:39:38;;;;;;;;;;;3.80;99.90;;;;;;5062646;28;20141;-66
2023/12/06 05:42:04;;;;;;;25.60;12.00;;;3.70;99.90;;;;;;5059391;28;19977;-66
2023/12/06 05:44:30;;;;;;;29.98;14.05;;;3.60;99.90;;;;;;5063372;28;20028;-66
2023/12/06 05:46:58;;;;;;;29.15;14.05;;;3.50;99.90;;;;;;5062667;28;20031;-66
2023/12/06 05:49:26;;;;;;;27.50;13.45;;;3.50;99.90;;;;;;5062774;28;20058;-66
2023/12/06 05:51:56;;;;;;;26.10;14.07;;;3.50;99.90;;;;;;5060638;28;20036;-66
2023/12/06 05:54:22;;;;;;;29.30;14.13;;;3.50;99.90;;;;;;5060994;28;20043;-66
2023/12/06 05:56:47;;;;;;;27.55;14.48;;;3.50;99.90;;;;;;5061393;28;20473;-66
2023/12/06 05:59:13;;;;;;;28.85;13.95;;;3.60;99.90;;;;;;5061569;28;20051;-66
2023/12/06 06:01:41;;;;;;;30.60;13.85;;;3.60;99.90;;;;;;5060872;28;20036;-66
2023/12/06 06:04:07;;;;;;;;;;;3.50;99.90;;;;;;5062590;28;20032;-66
2023/12/06 06:06:36;;;;;;;25.10;13.38;;;3.60;99.90;;;;;;5060875;28;19943;-66
2023/12/06 06:09:02;;;;;;;32.25;14.60;;;3.50;99.90;;;;;;5061232;28;20809;-66
2023/12/06 06:11:28;;;;;;;31.33;13.82;;;3.40;99.90;;;;;;5063096;28;20146;-66
2023/12/06 06:13:58;;;;;;;27.83;13.70;;;3.40;99.90;;;;;;5062196;28;20485;-66
2023/12/06 06:16:24;;;;;;;33.53;16.48;;;3.50;99.90;;;;;;5059870;28;20043;-66
2023/12/06 06:18:49;;;;;;;30.35;13.98;;;3.50;99.90;;;;;;5062591;28;20040;-66
2023/12/06 06:21:15;;;;;;;33.50;15.43;;;3.40;99.90;;;;;;5062000;28;20460;-66
2023/12/06 06:23:41;;;;;;;33.88;15.70;;;3.50;99.90;;;;;;5061064;28;20024;-66
2023/12/06 06:26:10;;;;;;;29.73;14.40;;;3.40;99.90;;;;;;5062768;28;20042;-66
2023/12/06 06:28:35;;;;;;;34.75;15.35;;;3.30;99.90;;;;;;5061046;28;20039;-66
2023/12/06 06:31:03;;;;;;;30.15;15.05;;;3.40;99.90;;;;;;5061431;28;20044;-66
2023/12/06 06:33:31;;;;;;;31.33;15.55;;;3.30;99.90;;;;;;5060003;28;20035;-66
2023/12/06 06:35:59;;;;;;;34.25;14.80;;;3.30;99.90;;;;;;5070060;28;20040;-66
2023/12/06 06:38:25;;;;;;;;;;;3.20;99.90;;;;;;5064329;28;20560;-66
2023/12/06 06:40:52;;;;;;;34.40;15.82;;;3.20;99.90;;;;;;5061926;28;19920;-65
2023/12/06 06:43:20;;;;;;;31.65;15.20;;;3.20;99.90;;;;;;5060881;28;20028;-65
2023/12/06 06:45:48;;;;;;;;;;;3.00;99.90;;;;;;5060383;28;20677;-65
2023/12/06 06:48:14;;;;;;;31.60;15.65;;;3.10;99.90;;;;;;5064850;22;19995;-65
2023/12/06 06:50:42;;;;;;;32.78;16.25;;;3.30;99.90;;;;;;5010230;28;20794;-65
2023/12/06 06:53:11;;;;;;;37.00;17.33;;;3.30;99.90;;;;;;5035128;28;20040;-64
2023/12/06 06:55:37;;;;;;;29.08;15.10;;;3.20;99.90;;;;;;5034147;28;20032;-65
2023/12/06 06:58:03;;;;;;;33.40;16.13;;;3.30;99.90;;;;;;5034364;28;20474;-65
2023/12/06 07:00:31;;;;;;;29.83;15.40;;;3.30;99.90;;;;;;5033992;28;20532;-65
2023/12/06 07:02:59;;;;;;;34.65;16.15;;;3.30;99.90;;;;;;5037417;28;20060;-65
2023/12/06 07:05:25;;;;;;;;;;;3.30;99.90;;;;;;5039209;28;20032;-65
2023/12/06 07:07:52;;;;;;;30.13;14.25;;;3.40;99.90;;;;;;5035719;28;20495;-65
2023/12/06 07:10:20;;;;;;;31.00;15.43;;;3.20;99.90;;;;;;5036666;28;20554;-65
2023/12/06 07:12:48;;;;;;;33.50;16.48;;;3.20;99.90;;;;;;5036537;28;20029;-65
2023/12/06 07:15:16;;;;;;;;;;;3.10;99.90;;;;;;5034963;28;20036;-65
2023/12/06 07:17:48;;;;;;;33.35;15.40;;;3.20;99.90;;;;;;5034336;28;19920;-65
2023/12/06 07:20:14;;;;;;;34.15;16.08;;;3.20;99.90;;;;;;5035805;28;20083;-65
2023/12/06 07:22:40;;;;;;;35.05;16.90;;;3.20;99.90;;;;;;5034885;28;20036;-65
2023/12/06 07:25:08;;;;;;;36.47;16.65;;;3.10;99.90;;;;;;5036205;28;20038;-65
2023/12/06 07:27:36;;;;;;;35.28;16.15;;;3.10;99.90;;;;;;5036995;28;20614;-66
2023/12/06 07:30:04;;;;;;;;;;;3.10;99.90;;;;;;5036491;28;20025;-66
2023/12/06 07:32:33;;;;;;;31.88;15.30;;;3.10;99.90;;;;;;5033958;28;19918;-65
2023/12/06 07:34:58;;;;;;;31.13;14.75;;;3.10;99.90;;;;;;5028950;28;20032;-65
2023/12/06 07:37:26;;;;;;;34.95;15.77;;;3.10;99.90;;;;;;5027781;28;20479;-65
2023/12/06 07:39:52;;;;;;;35.78;17.13;;;3.00;99.90;;;;;;5028716;28;20032;-65
2023/12/06 07:42:17;;;;;;;35.30;16.00;;;3.00;99.90;;;;;;5027000;28;20039;-65
2023/12/06 07:44:47;;;;;;;35.35;16.05;;;2.90;99.90;;;;;;5027272;28;20036;-65
2023/12/06 07:47:16;;;;;;;33.05;16.27;;;3.00;99.90;;;;;;5026294;28;20025;-65
2023/12/06 07:49:44;;;;;;;35.42;16.52;;;3.00;99.90;;;;;;5029450;28;20044;-66
2023/12/06 07:52:12;;;;;;;34.08;16.77;;;3.10;99.90;;;;;;5007922;28;20091;-65
2023/12/06 07:54:37;;;;;;;32.28;15.15;;;3.10;99.90;;;;;;5028892;28;20061;-65
2023/12/06 07:57:06;;;;;;;33.67;16.30;;;3.20;99.90;;;;;;5027260;28;20585;-65
2023/12/06 07:59:31;;;;;;;36.33;15.93;;;3.20;99.90;;;;;;5027514;28;20191;-65
2023/12/06 08:01:59;;;;;;;31.27;15.27;;;3.20;99.90;;;;;;5025557;28;20036;-65
2023/12/06 08:04:25;;;;;;;;;;;3.30;99.90;;;;;;5027008;28;20140;-65
2023/12/06 08:06:53;;;;;;;33.92;14.52;;;3.20;99.90;;;;;;5028033;28;19916;-65
2023/12/06 08:09:20;;;;;;;;;;;3.20;99.90;;;;;;5027752;28;20033;-65
2023/12/06 08:11:46;;;;;;;;;;;3.20;99.90;;;;;;5027888;28;20474;-65
2023/12/06 08:14:13;;;;;;;38.20;17.23;;;3.20;99.90;;;;;;5026853;28;19989;-65
2023/12/06 08:16:41;;;;;;;33.35;16.42;;;3.30;99.90;;;;;;5025824;28;20083;-65
2023/12/06 08:19:07;;;;;;;;;;;3.20;99.90;;;;;;5028978;28;20025;-65
2023/12/06 08:21:36;;;;;;;31.00;15.40;;;3.20;99.90;;;;;;5028066;28;19931;-65
2023/12/06 08:24:05;;;;;;;32.35;15.57;;;3.10;99.90;;;;;;5031193;28;20224;-65
2023/12/06 08:26:34;;;;;;;36.13;15.65;;;3.10;99.90;;;;;;5030344;28;20560;-65
2023/12/06 08:29:02;;;;;;;32.42;16.00;;;3.00;99.90;;;;;;5026954;28;20526;-65
2023/12/06 08:31:28;;;;;;;34.92;16.98;;;3.10;99.90;;;;;;5026110;28;20040;-65
2023/12/06 08:33:58;;;;;;;33.47;15.60;;;3.20;99.90;;;;;;5027060;28;20700;-65
2023/12/06 08:36:27;;;;;;;34.67;15.73;;;3.10;99.90;;;;;;5029485;28;20111;-65
2023/12/06 08:38:55;;;;;;;35.72;16.33;;;3.20;99.90;;;;;;5029850;28;20028;-65
2023/12/06 08:41:22;;;;;;;;;;;3.30;99.90;;;;;;5028957;28;20037;-65
2023/12/06 08:43:47;;;;;;;33.53;16.03;;;3.20;99.90;;;;;;5027195;28;21056;-65
2023/12/06 08:46:13;;;;;;;35.13;16.20;;;3.10;99.90;;;;;;5027283;28;20028;-65
2023/12/06 08:48:40;;;;;;;39.63;18.02;;;3.10;99.90;;;;;;5030621;28;20032;-65
2023/12/06 08:51:06;;;;;;;42.90;18.70;;;3.10;99.90;;;;;;5026205;28;20043;-65
2023/12/06 08:53:32;;;;;;;35.70;17.55;;;3.10;99.90;;;;;;5026283;28;20234;-65
2023/12/06 08:55:58;;;;;;;34.22;16.88;;;3.00;99.90;;;;;;5033280;28;20029;-65
2023/12/06 08:58:26;;;;;;;37.90;17.80;;;3.10;99.90;;;;;;5011929;28;20044;-65
2023/12/06 09:00:54;;;;;;;37.95;17.42;;;3.00;99.90;;;;;;5033772;28;20100;-65
2023/12/06 09:03:20;;;;;;;;;;;3.10;99.90;;;;;;5033421;28;20081;-65
2023/12/06 09:05:48;;;;;;;37.13;17.20;;;3.10;99.90;;;;;;5032627;28;20270;-65
2023/12/06 09:08:16;;;;;;;39.85;17.60;;;3.00;99.90;;;;;;5033097;28;20060;-65
2023/12/06 09:10:41;;;;;;;38.30;18.08;;;3.10;99.90;;;;;;5034161;28;20672;-65
2023/12/06 09:13:07;;;;;;;40.25;18.13;;;3.10;99.90;;;;;;5033219;28;20045;-65
2023/12/06 09:15:34;;;;;;;37.20;17.40;;;3.10;99.90;;;;;;5033168;28;20032;-65
2023/12/06 09:18:02;;;;;;;40.25;17.73;;;3.10;99.90;;;;;;5017389;28;20148;-65
2023/12/06 09:22:55;;;;;;;38.95;18.00;;;3.20;99.90;;;;;;5008939;28;20052;-70
2023/12/06 09:25:21;;;;;;;46.25;18.77;;;3.20;99.90;;;;;;5001909;28;20528;-69
2023/12/06 09:27:46;;;;;;;44.08;18.48;;;3.10;99.90;;;;;;5015384;28;20057;-69
2023/12/06 09:30:12;;;;;;;47.15;19.02;;;3.10;99.90;;;;;;5015776;28;20028;-69
2023/12/06 09:32:40;;;;;;;40.65;18.95;;;3.20;99.90;;;;;;5015250;28;20078;-69
2023/12/06 09:35:08;;;;;;;41.35;18.77;;;3.10;99.90;;;;;;5019364;28;20151;-69
2023/12/06 09:37:33;;;;;;;;;;;3.20;99.90;;;;;;5022151;28;20029;-69
2023/12/06 09:39:59;;;;;;;42.90;19.08;;;3.20;99.90;;;;;;5014780;28;22084;-69
2023/12/06 09:42:28;;;;;;;40.78;19.42;;;3.10;99.90;;;;;;5012948;28;20048;-69
2023/12/06 09:44:55;;;;;;;40.78;18.90;;;3.00;99.90;;;;;;5012151;28;20371;-69
2023/12/06 09:47:23;;;;;;;43.63;19.92;;;3.00;99.90;;;;;;5013338;28;20036;-69
2023/12/06 09:49:51;;;;;;;45.00;20.58;;;3.00;99.90;;;;;;5013669;28;20423;-69
2023/12/06 09:52:21;;;;;;;47.53;21.83;;;3.10;99.90;;;;;;5014157;28;20084;-69
2023/12/06 09:54:51;;;;;;;44.25;21.35;;;3.10;99.90;;;;;;5013321;28;20403;-69
2023/12/06 09:57:17;;;;;;;44.72;20.65;;;3.30;99.90;;;;;;5014658;28;20403;-70
2023/12/06 09:59:42;;;;;;;45.35;21.58;;;3.40;99.90;;;;;;5015792;28;20045;-69
2023/12/06 10:02:08;;;;;;;46.05;20.05;;;3.40;99.90;;;;;;5014687;28;20837;-69
2023/12/06 10:04:35;;;;;;;47.38;21.00;;;3.40;99.90;;;;;;5013688;28;20116;-69
2023/12/06 10:07:01;;;;;;;43.97;19.80;;;3.30;99.90;;;;;;5013714;28;20099;-69
2023/12/06 10:09:29;;;;;;;45.22;20.85;;;3.50;99.90;;;;;;5015157;28;20039;-69
2023/12/06 10:12:12;;;;;;;45.03;21.13;;;3.30;99.90;;;;;;5014126;28;20041;-69
2023/12/06 10:14:38;;;;;;;43.92;20.30;;;3.30;99.90;;;;;;5016474;28;20059;-69
2023/12/06 10:17:08;;;;;;;43.03;20.40;;;3.40;99.90;;;;;;5015877;28;20091;-69
2023/12/06 10:19:37;;;;;;;46.08;20.75;;;3.60;99.90;;;;;;5015120;28;20036;-69
2023/12/06 10:22:03;;;;;;;47.90;21.25;;;3.60;99.90;;;;;;5013222;28;20039;-69
2023/12/06 10:24:29;;;;;;;46.85;21.42;;;3.70;99.90;;;;;;5013406;28;20467;-70
2023/12/06 10:27:11;;;;;;;59.55;23.40;;;3.80;99.90;;;;;;5014976;28;20151;-69
2023/12/06 10:29:37;;;;;;;50.45;23.17;;;3.70;99.90;;;;;;5014230;28;20021;-69
2023/12/06 10:32:03;;;;;;;54.47;24.15;;;3.70;99.90;;;;;;5012097;28;20068;-69
2023/12/06 10:34:31;;;;;;;52.67;23.45;;;3.50;99.90;;;;;;5013855;28;20499;-69
2023/12/06 10:36:58;;;;;;;51.80;23.17;;;3.40;99.90;;;;;;5014357;28;20033;-69
2023/12/06 10:39:26;;;;;;;52.17;24.20;;;3.20;99.90;;;;;;5015769;28;21501;-70
2023/12/06 10:41:55;;;;;;;53.80;24.13;;;3.10;99.90;;;;;;5012947;28;20029;-69
2023/12/06 10:44:23;;;;;;;54.90;25.25;;;3.10;99.90;;;;;;5011949;28;20033;-69
2023/12/06 10:46:49;;;;;;;56.80;26.52;;;3.10;99.90;;;;;;5012559;28;20025;-69
2023/12/06 10:49:17;;;;;;;59.17;27.05;;;3.00;99.90;;;;;;5014698;28;20025;-70
2023/12/06 10:51:44;;;;;;;63.83;27.70;;;3.00;99.90;;;;;;5014152;28;20047;-70
2023/12/06 10:54:12;;;;;;;59.17;26.85;;;3.00;99.90;;;;;;5014507;28;20633;-69
2023/12/06 10:56:38;;;;;;;;;;;3.10;99.90;;;;;;5014191;28;20036;-69
2023/12/06 10:59:06;;;;;;;55.83;24.58;;;3.10;99.90;;;;;;5013835;28;19921;-69
2023/12/06 11:01:32;;;;;;;57.88;26.13;;;3.10;99.90;;;;;;5015169;28;20215;-69
2023/12/06 11:04:01;;;;;;;56.60;26.58;;;3.10;99.90;;;;;;5011228;28;20354;-69
2023/12/06 11:06:36;;;;;;;54.33;25.60;;;3.00;99.90;;;;;;4997790;28;20029;-69
2023/12/06 11:09:47;;;;;;;57.22;26.77;;;3.10;99.90;;;;;;5012369;28;20356;-69
2023/12/06 11:12:24;;;;;;;58.90;26.35;;;3.10;99.90;;;;;;4967000;28;20034;-69
2023/12/06 11:14:56;;;;;;;62.88;27.25;;;3.00;99.90;;;;;;4967611;28;20903;-69
2023/12/06 11:17:41;;;;;;;59.75;25.20;;;3.00;99.90;;;;;;4994914;28;20131;-70
2023/12/06 11:20:09;;;;;;;62.95;26.77;;;3.10;99.90;;;;;;5013371;28;20029;-69
2023/12/06 11:22:35;;;;;;;;;;;3.10;99.90;;;;;;5012764;28;20036;-70
2023/12/06 11:25:01;;;;;;;60.65;26.70;;;3.00;99.90;;;;;;5011977;28;19913;-69
2023/12/06 11:27:27;;;;;;;60.33;27.30;;;3.10;99.90;;;;;;4996359;28;20439;-69
2023/12/06 11:29:53;;;;;;;62.92;27.88;;;3.20;99.90;;;;;;5013880;28;20065;-69
2023/12/06 11:32:18;;;;;;;58.83;27.15;;;3.00;99.90;;;;;;5011529;28;20492;-69
2023/12/06 11:34:57;;;;;;;58.78;27.13;;;3.00;99.90;;;;;;5011846;28;20139;-69
2023/12/06 11:37:22;;;;;;;59.60;27.05;;;3.00;99.90;;;;;;5010143;28;20110;-70
2023/12/06 11:40:13;;;;;;;63.03;27.70;;;3.10;99.90;;;;;;5011860;28;20605;-69
2023/12/06 11:42:39;;;;;;;62.03;27.55;;;3.10;99.90;;;;;;5016103;28;20064;-70
2023/12/06 11:45:21;;;;;;;55.88;26.13;;;3.20;99.90;;;;;;5010122;28;21897;-70
2023/12/06 11:47:49;;;;;;;65.38;27.48;;;3.10;99.90;;;;;;5012899;28;20107;-69
2023/12/06 11:50:16;;;;;;;55.88;25.73;;;3.10;99.90;;;;;;5014753;28;20055;-69
2023/12/06 11:52:52;;;;;;;59.47;26.60;;;3.10;99.90;;;;;;5010428;28;20102;-69
2023/12/06 11:55:19;;;;;;;52.55;25.20;;;2.90;99.90;;;;;;5014816;28;20026;-69
2023/12/06 11:58:11;;;;;;;55.45;24.70;;;3.00;99.90;;;;;;5011538;28;20491;-70
2023/12/06 12:00:44;;;;;;;55.15;25.90;;;3.00;99.90;;;;;;5015649;28;20507;-69
2023/12/06 12:03:10;;;;;;;57.28;26.35;;;3.00;99.90;;;;;;5013039;28;20017;-69
2023/12/06 12:05:41;;;;;;;56.58;26.00;;;3.00;99.90;;;;;;5013101;28;20641;-70
2023/12/06 12:08:07;;;;;;;58.28;25.98;;;3.10;99.90;;;;;;5012042;28;20442;-70
2023/12/06 12:10:33;;;;;;;49.45;23.75;;;3.10;99.90;;;;;;5013812;28;21884;-69
2023/12/06 12:13:01;;;;;;;55.08;25.00;;;3.10;99.90;;;;;;5013543;28;20156;-69
2023/12/06 12:15:28;;;;;;;;;;;2.90;99.90;;;;;;5014387;28;20058;-69
2023/12/06 12:17:54;;;;;;;58.88;25.50;;;3.00;99.90;;;;;;5010392;28;20019;-69
2023/12/06 12:20:20;;;;;;;54.13;23.27;;;3.10;99.90;;;;;;5014863;28;20036;-70
2023/12/06 12:22:52;;;;;;;56.00;23.85;;;3.10;99.90;;;;;;5010362;28;20116;-69
2023/12/06 12:25:19;;;;;;;55.63;26.38;;;3.20;99.90;;;;;;5012184;28;20059;-70
2023/12/06 12:27:47;;;;;;;57.40;26.05;;;3.20;99.90;;;;;;5012866;28;20025;-70
2023/12/06 12:30:13;;;;;;;53.92;25.58;;;3.20;99.90;;;;;;5017525;28;20443;-69
2023/12/06 12:32:48;;;;;;;54.50;24.98;;;3.20;99.90;;;;;;5013337;28;20128;-70
2023/12/06 12:35:15;;;;;;;56.95;24.70;;;3.30;99.90;;;;;;5013409;28;20739;-70
2023/12/06 12:37:41;;;;;;;55.95;24.60;;;3.10;99.90;;;;;;5014770;28;20167;-70
2023/12/06 12:40:09;;;;;;;51.55;23.48;;;3.00;99.90;;;;;;5018273;28;20048;-69
2023/12/06 12:42:42;;;;;;;59.28;25.50;;;3.00;99.90;;;;;;5011242;28;20380;-69
2023/12/06 12:45:15;;;;;;;55.45;24.90;;;3.00;99.90;;;;;;5011014;28;20036;-69
2023/12/06 12:47:41;;;;;;;53.42;24.13;;;3.10;99.90;;;;;;5040359;22;20074;-69
2023/12/06 12:50:07;;;;;;;58.60;24.95;;;3.20;99.90;;;;;;5066503;28;20104;-69
2023/12/06 12:52:34;;;;;;;50.42;23.67;;;3.10;99.90;;;;;;5049384;28;20063;-69
2023/12/06 12:55:06;;;;;;;56.42;24.13;;;3.10;99.90;;;;;;5067315;28;20853;-69